Yakutat Airport
PAYA : now visible

Aeroporto :











RITROVATECI SU...

 
LOGIN :

Iscrizione | Disclaimer

   EN    FR    IT 

 









Sommario :    VFR   VFR Marginale   IFR   IFR Intensivo   IFR Molto Intensivo
Visibilità : 
Base nubi : 
>= 8 km
>= 3000ft
5 / 8 km
1000 / 3000 ft
1500m / 5 km
500 / 1000 ft
800 / 1500m
200 / 500 ft
< 800m
< 200 ft
Simboli :   Temporali  Nebbia  Neve Forte  Precipitazioni Forti  Vento > 20 kt






- Altitudine del aeroporto : 33 ft


PAYA - Yakutat

ULTIMO METAR :
  • 271625Z AUTO 24004KT 10SM FEW015 BKN022 09/06 A3028 RMK AO2 T00940061 TSNO $

METARs OBSOLETI :
  • 271602Z AUTO 00000KT 10SM SCT014 BKN021 BKN110 09/06 A3028 RMK AO2 T00940061 TSNO $
  • 271453Z AUTO 00000KT 10SM BKN110 07/06 A3028 RMK AO2 SLP255 T00720061 56007 TSNO $
  • 271353Z AUTO 00000KT 10SM SCT003 BKN110 04/03 A3029 RMK AO2 SLP258 T00390033 TSNO $

TAF PAYA
Valido dal 27 a 12 ore il 28 a 12 ore UTC


271120Z 2712/2812 VRB02KT P6SM BKN050
FM271800 30006KT P6SM SCT100 AMD LTD TO CLD VIS AND WIND
FIR PAZA / America del Nord



MetMap, La meteo Aeronautica in un colpo d'occhio ! - Copyright ORBIFLY Dicembre 2007 - Disclaimer

ORBIFLY MET'MAP TEAM :

Programmazione e sviluppo : Alexandra Zaïnal
Concezione : Baudouin d'Aumeries
Aiuto per la programmazione : Marc-Olivier Méhu
Supporto tecnico e logistico : Manuel Goepfert
Aiuto per la traduzione : Arnaldo La Scala

Contatto : metmap@orbifly.com




FONTI E CREDITI :

   NOAA       Earth
Advisory